Alma, New York
Current Conditions -  °F | °C
As of 2:56 AM on Saturday 25 Oct 2014 (Local Time) from KELZ Reporting Station
Scattered Clouds Scattered Clouds  
Wind Chill: 43°   Ceiling: Unl
Heat Index: 46°   Visibility: 10mi
Dew Point: 36°   Wind: 6mph
Humidity: 68%   Direction: 260°W
Pressure: 29.93"   Gusts: NA
Location:  42.01°N, 78.06°W
Report Text: KELZ 250656Z AUTO 26005KT 10SM SCT050 08/02 A2993 RMK AO2 SLP139 T00780022
Loading
Personal Weather Stations






























Interactive Weather Map
Tropical Storm Tracking
New forecast layout! Learn more

10-Day Weather Forecast

Advertisements
Track Severe Weather on mobile